sensor_id;sensor_type;location;lat;lon;timestamp;temperature;humidity
44671;DHT22;48397;53.016;-2.260;2023-02-02T00:01:33;8.80;99.90
44671;DHT22;48397;53.016;-2.260;2023-02-02T00:04:02;8.80;99.90
44671;DHT22;48397;53.016;-2.260;2023-02-02T00:06:31;8.80;99.90
44671;DHT22;48397;53.016;-2.260;2023-02-02T00:09:00;8.80;99.90
44671;DHT22;48397;53.016;-2.260;2023-02-02T00:11:28;8.80;99.90
44671;DHT22;48397;53.016;-2.260;2023-02-02T00:13:56;8.80;99.90
44671;DHT22;48397;53.016;-2.260;2023-02-02T00:19:00;8.80;99.90
44671;DHT22;48397;53.016;-2.260;2023-02-02T00:21:28;8.90;99.90
44671;DHT22;48397;53.016;-2.260;2023-02-02T00:23:56;8.90;99.90
44671;DHT22;48397;53.016;-2.260;2023-02-02T00:26:25;8.90;99.90
44671;DHT22;48397;53.016;-2.260;2023-02-02T00:28:54;8.90;99.90
44671;DHT22;48397;53.016;-2.260;2023-02-02T00:31:23;8.80;99.90
44671;DHT22;48397;53.016;-2.260;2023-02-02T00:33:52;8.90;99.90
44671;DHT22;48397;53.016;-2.260;2023-02-02T00:36:20;8.80;99.90
44671;DHT22;48397;53.016;-2.260;2023-02-02T00:38:49;8.80;99.90
44671;DHT22;48397;53.016;-2.260;2023-02-02T00:41:17;8.80;99.90
44671;DHT22;48397;53.016;-2.260;2023-02-02T00:43:45;8.80;99.90
44671;DHT22;48397;53.016;-2.260;2023-02-02T00:46:32;8.80;99.90
44671;DHT22;48397;53.016;-2.260;2023-02-02T00:51:28;8.80;99.90
44671;DHT22;48397;53.016;-2.260;2023-02-02T00:53:58;8.80;99.90
44671;DHT22;48397;53.016;-2.260;2023-02-02T00:56:26;8.80;99.90
44671;DHT22;48397;53.016;-2.260;2023-02-02T00:58:54;8.80;99.90
44671;DHT22;48397;53.016;-2.260;2023-02-02T01:01:24;8.80;99.90
44671;DHT22;48397;53.016;-2.260;2023-02-02T01:03:52;8.80;99.90
44671;DHT22;48397;53.016;-2.260;2023-02-02T01:06:20;8.70;99.90
44671;DHT22;48397;53.016;-2.260;2023-02-02T01:08:48;8.80;99.90
44671;DHT22;48397;53.016;-2.260;2023-02-02T01:11:16;5.90;99.90
44671;DHT22;48397;53.016;-2.260;2023-02-02T01:13:44;8.70;99.90
44671;DHT22;48397;53.016;-2.260;2023-02-02T01:16:13;8.70;99.90
44671;DHT22;48397;53.016;-2.260;2023-02-02T01:18:40;8.60;99.90
44671;DHT22;48397;53.016;-2.260;2023-02-02T01:21:10;8.40;99.90
44671;DHT22;48397;53.016;-2.260;2023-02-02T01:23:39;8.40;99.90
44671;DHT22;48397;53.016;-2.260;2023-02-02T01:26:09;8.30;99.90
44671;DHT22;48397;53.016;-2.260;2023-02-02T01:28:37;8.20;99.90
44671;DHT22;48397;53.016;-2.260;2023-02-02T01:31:09;8.20;99.90
44671;DHT22;48397;53.016;-2.260;2023-02-02T01:33:37;8.20;99.90
44671;DHT22;48397;53.016;-2.260;2023-02-02T01:36:08;8.20;99.90
44671;DHT22;48397;53.016;-2.260;2023-02-02T01:38:38;8.20;99.90
44671;DHT22;48397;53.016;-2.260;2023-02-02T01:41:07;8.20;99.90
44671;DHT22;48397;53.016;-2.260;2023-02-02T01:51:29;8.30;99.90
44671;DHT22;48397;53.016;-2.260;2023-02-02T01:53:59;8.20;99.90
44671;DHT22;48397;53.016;-2.260;2023-02-02T01:56:34;8.30;99.90
44671;DHT22;48397;53.016;-2.260;2023-02-02T01:59:04;8.30;99.90
44671;DHT22;48397;53.016;-2.260;2023-02-02T02:01:32;8.30;99.90
44671;DHT22;48397;53.016;-2.260;2023-02-02T02:04:00;8.30;99.90
44671;DHT22;48397;53.016;-2.260;2023-02-02T02:06:28;8.30;99.90
44671;DHT22;48397;53.016;-2.260;2023-02-02T02:08:59;8.30;99.90
44671;DHT22;48397;53.016;-2.260;2023-02-02T02:11:31;8.30;99.90
44671;DHT22;48397;53.016;-2.260;2023-02-02T02:14:03;8.30;99.90
44671;DHT22;48397;53.016;-2.260;2023-02-02T02:17:04;8.30;99.90
44671;DHT22;48397;53.016;-2.260;2023-02-02T02:32:05;8.20;99.90
44671;DHT22;48397;53.016;-2.260;2023-02-02T02:40:12;8.30;99.90
44671;DHT22;48397;53.016;-2.260;2023-02-02T02:42:45;8.30;99.90
44671;DHT22;48397;53.016;-2.260;2023-02-02T02:45:16;8.30;99.90
44671;DHT22;48397;53.016;-2.260;2023-02-02T02:47:44;8.30;99.90
44671;DHT22;48397;53.016;-2.260;2023-02-02T02:50:13;8.30;99.90
44671;DHT22;48397;53.016;-2.260;2023-02-02T02:52:41;8.20;99.90
44671;DHT22;48397;53.016;-2.260;2023-02-02T02:55:09;8.20;99.90
44671;DHT22;48397;53.016;-2.260;2023-02-02T02:57:58;8.20;99.90
44671;DHT22;48397;53.016;-2.260;2023-02-02T03:03:58;8.20;99.90
44671;DHT22;48397;53.016;-2.260;2023-02-02T03:09:24;8.20;99.90
44671;DHT22;48397;53.016;-2.260;2023-02-02T03:11:54;8.20;99.90
44671;DHT22;48397;53.016;-2.260;2023-02-02T03:14:21;8.20;99.90
44671;DHT22;48397;53.016;-2.260;2023-02-02T03:16:52;8.20;99.90
44671;DHT22;48397;53.016;-2.260;2023-02-02T03:19:20;8.20;99.90
44671;DHT22;48397;53.016;-2.260;2023-02-02T03:21:48;8.20;99.90
44671;DHT22;48397;53.016;-2.260;2023-02-02T03:24:16;8.20;99.90
44671;DHT22;48397;53.016;-2.260;2023-02-02T03:26:44;8.20;99.90
44671;DHT22;48397;53.016;-2.260;2023-02-02T03:29:12;8.20;99.90
44671;DHT22;48397;53.016;-2.260;2023-02-02T03:31:40;8.20;99.90
44671;DHT22;48397;53.016;-2.260;2023-02-02T03:34:10;8.20;99.90
44671;DHT22;48397;53.016;-2.260;2023-02-02T03:36:38;8.20;99.90
44671;DHT22;48397;53.016;-2.260;2023-02-02T03:39:06;8.20;99.90
44671;DHT22;48397;53.016;-2.260;2023-02-02T03:41:34;8.20;99.90
44671;DHT22;48397;53.016;-2.260;2023-02-02T03:44:02;8.30;99.90
44671;DHT22;48397;53.016;-2.260;2023-02-02T03:46:31;8.30;99.90
44671;DHT22;48397;53.016;-2.260;2023-02-02T03:48:58;8.30;99.90
44671;DHT22;48397;53.016;-2.260;2023-02-02T03:51:26;8.30;99.90
44671;DHT22;48397;53.016;-2.260;2023-02-02T03:53:54;8.30;99.90
44671;DHT22;48397;53.016;-2.260;2023-02-02T03:56:22;8.30;99.90
44671;DHT22;48397;53.016;-2.260;2023-02-02T03:58:49;8.30;99.90
44671;DHT22;48397;53.016;-2.260;2023-02-02T04:01:25;8.30;99.90
44671;DHT22;48397;53.016;-2.260;2023-02-02T04:03:55;8.50;99.90
44671;DHT22;48397;53.016;-2.260;2023-02-02T04:06:23;8.40;99.90
44671;DHT22;48397;53.016;-2.260;2023-02-02T04:08:52;8.40;99.90
44671;DHT22;48397;53.016;-2.260;2023-02-02T04:11:20;8.40;99.90
44671;DHT22;48397;53.016;-2.260;2023-02-02T04:13:47;8.50;99.90
44671;DHT22;48397;53.016;-2.260;2023-02-02T04:16:17;8.50;99.90
44671;DHT22;48397;53.016;-2.260;2023-02-02T04:18:44;8.50;99.90
44671;DHT22;48397;53.016;-2.260;2023-02-02T04:21:12;8.50;99.90
44671;DHT22;48397;53.016;-2.260;2023-02-02T04:23:40;8.50;99.90
44671;DHT22;48397;53.016;-2.260;2023-02-02T04:26:07;8.50;99.90
44671;DHT22;48397;53.016;-2.260;2023-02-02T04:28:36;8.50;99.90
44671;DHT22;48397;53.016;-2.260;2023-02-02T04:31:04;8.50;99.90
44671;DHT22;48397;53.016;-2.260;2023-02-02T04:33:33;8.50;99.90
44671;DHT22;48397;53.016;-2.260;2023-02-02T04:36:01;8.50;99.90
44671;DHT22;48397;53.016;-2.260;2023-02-02T04:38:30;8.60;99.90
44671;DHT22;48397;53.016;-2.260;2023-02-02T04:40:58;8.50;99.90
44671;DHT22;48397;53.016;-2.260;2023-02-02T04:43:28;8.60;99.90
44671;DHT22;48397;53.016;-2.260;2023-02-02T04:45:56;8.60;99.90
44671;DHT22;48397;53.016;-2.260;2023-02-02T04:48:25;8.60;99.90
44671;DHT22;48397;53.016;-2.260;2023-02-02T04:51:04;8.60;99.90
44671;DHT22;48397;53.016;-2.260;2023-02-02T04:53:32;8.60;99.90
44671;DHT22;48397;53.016;-2.260;2023-02-02T04:56:07;8.60;99.90
44671;DHT22;48397;53.016;-2.260;2023-02-02T04:58:35;8.60;99.90
44671;DHT22;48397;53.016;-2.260;2023-02-02T05:01:18;8.60;99.90
44671;DHT22;48397;53.016;-2.260;2023-02-02T05:03:46;8.60;99.90
44671;DHT22;48397;53.016;-2.260;2023-02-02T05:06:15;8.60;99.90
44671;DHT22;48397;53.016;-2.260;2023-02-02T05:08:45;8.50;99.90
44671;DHT22;48397;53.016;-2.260;2023-02-02T05:11:16;8.60;99.90
44671;DHT22;48397;53.016;-2.260;2023-02-02T05:13:49;8.60;99.90
44671;DHT22;48397;53.016;-2.260;2023-02-02T05:16:17;8.60;99.90
44671;DHT22;48397;53.016;-2.260;2023-02-02T05:18:54;8.60;99.90
44671;DHT22;48397;53.016;-2.260;2023-02-02T05:21:22;8.60;99.90
44671;DHT22;48397;53.016;-2.260;2023-02-02T05:23:50;8.60;99.90
44671;DHT22;48397;53.016;-2.260;2023-02-02T05:26:22;8.60;99.90
44671;DHT22;48397;53.016;-2.260;2023-02-02T05:28:50;8.60;99.90
44671;DHT22;48397;53.016;-2.260;2023-02-02T05:31:19;8.60;99.90
44671;DHT22;48397;53.016;-2.260;2023-02-02T05:33:47;8.60;99.90
44671;DHT22;48397;53.016;-2.260;2023-02-02T05:36:14;8.60;99.90
44671;DHT22;48397;53.016;-2.260;2023-02-02T05:38:42;8.50;99.90
44671;DHT22;48397;53.016;-2.260;2023-02-02T05:41:10;8.60;99.90
44671;DHT22;48397;53.016;-2.260;2023-02-02T05:43:38;8.60;99.90
44671;DHT22;48397;53.016;-2.260;2023-02-02T05:46:06;8.60;99.90
44671;DHT22;48397;53.016;-2.260;2023-02-02T05:48:33;8.60;99.90
44671;DHT22;48397;53.016;-2.260;2023-02-02T05:51:29;8.60;99.90
44671;DHT22;48397;53.016;-2.260;2023-02-02T05:53:58;8.60;99.90
44671;DHT22;48397;53.016;-2.260;2023-02-02T05:56:27;8.70;99.90
44671;DHT22;48397;53.016;-2.260;2023-02-02T05:58:57;8.60;99.90
44671;DHT22;48397;53.016;-2.260;2023-02-02T06:01:26;8.60;99.90
44671;DHT22;48397;53.016;-2.260;2023-02-02T06:06:22;8.60;99.90
44671;DHT22;48397;53.016;-2.260;2023-02-02T06:08:49;8.60;99.90
44671;DHT22;48397;53.016;-2.260;2023-02-02T06:11:18;8.60;99.90
44671;DHT22;48397;53.016;-2.260;2023-02-02T06:13:45;8.50;99.90
44671;DHT22;48397;53.016;-2.260;2023-02-02T06:16:13;8.60;99.90
44671;DHT22;48397;53.016;-2.260;2023-02-02T06:18:41;8.50;99.90
44671;DHT22;48397;53.016;-2.260;2023-02-02T06:23:40;8.40;99.90
44671;DHT22;48397;53.016;-2.260;2023-02-02T06:26:15;8.40;99.90
44671;DHT22;48397;53.016;-2.260;2023-02-02T06:28:48;8.40;99.90
44671;DHT22;48397;53.016;-2.260;2023-02-02T06:31:16;8.30;99.90
44671;DHT22;48397;53.016;-2.260;2023-02-02T06:33:51;8.40;99.90
44671;DHT22;48397;53.016;-2.260;2023-02-02T06:36:20;8.40;99.90
44671;DHT22;48397;53.016;-2.260;2023-02-02T06:38:49;8.40;99.90
44671;DHT22;48397;53.016;-2.260;2023-02-02T06:41:18;8.40;99.90
44671;DHT22;48397;53.016;-2.260;2023-02-02T06:43:47;8.40;99.90
44671;DHT22;48397;53.016;-2.260;2023-02-02T06:46:16;8.40;99.90
44671;DHT22;48397;53.016;-2.260;2023-02-02T06:48:43;8.40;99.90
44671;DHT22;48397;53.016;-2.260;2023-02-02T06:51:12;8.40;99.90
44671;DHT22;48397;53.016;-2.260;2023-02-02T06:53:42;8.50;99.90
44671;DHT22;48397;53.016;-2.260;2023-02-02T06:56:12;8.60;99.90
44671;DHT22;48397;53.016;-2.260;2023-02-02T06:58:40;8.50;99.90
44671;DHT22;48397;53.016;-2.260;2023-02-02T07:01:10;8.60;99.90
44671;DHT22;48397;53.016;-2.260;2023-02-02T07:03:39;8.40;99.90
44671;DHT22;48397;53.016;-2.260;2023-02-02T07:08:24;8.60;99.90
44671;DHT22;48397;53.016;-2.260;2023-02-02T07:10:52;8.60;99.90
44671;DHT22;48397;53.016;-2.260;2023-02-02T07:13:39;8.70;99.90
44671;DHT22;48397;53.016;-2.260;2023-02-02T07:16:07;8.80;99.90
44671;DHT22;48397;53.016;-2.260;2023-02-02T07:18:36;8.80;99.90
44671;DHT22;48397;53.016;-2.260;2023-02-02T07:21:04;8.90;99.90
44671;DHT22;48397;53.016;-2.260;2023-02-02T07:23:32;8.90;99.90
44671;DHT22;48397;53.016;-2.260;2023-02-02T07:26:06;9.00;99.90
44671;DHT22;48397;53.016;-2.260;2023-02-02T07:28:40;9.10;99.90
44671;DHT22;48397;53.016;-2.260;2023-02-02T07:31:17;9.10;99.90
44671;DHT22;48397;53.016;-2.260;2023-02-02T07:33:46;9.10;99.90
44671;DHT22;48397;53.016;-2.260;2023-02-02T07:36:17;9.20;99.90
44671;DHT22;48397;53.016;-2.260;2023-02-02T07:38:46;9.10;99.90
44671;DHT22;48397;53.016;-2.260;2023-02-02T07:41:15;9.20;99.90
44671;DHT22;48397;53.016;-2.260;2023-02-02T07:43:45;9.20;99.90
44671;DHT22;48397;53.016;-2.260;2023-02-02T07:46:14;9.30;99.90
44671;DHT22;48397;53.016;-2.260;2023-02-02T07:48:42;9.30;99.90
44671;DHT22;48397;53.016;-2.260;2023-02-02T07:51:13;9.30;99.90
44671;DHT22;48397;53.016;-2.260;2023-02-02T07:53:48;9.30;99.90
44671;DHT22;48397;53.016;-2.260;2023-02-02T07:56:26;9.30;99.90
44671;DHT22;48397;53.016;-2.260;2023-02-02T07:58:58;9.30;99.90
44671;DHT22;48397;53.016;-2.260;2023-02-02T08:01:27;9.30;99.90
44671;DHT22;48397;53.016;-2.260;2023-02-02T08:03:57;9.30;99.90
44671;DHT22;48397;53.016;-2.260;2023-02-02T08:06:34;9.30;99.90
44671;DHT22;48397;53.016;-2.260;2023-02-02T08:09:04;9.30;99.90
44671;DHT22;48397;53.016;-2.260;2023-02-02T08:11:36;9.20;99.90
44671;DHT22;48397;53.016;-2.260;2023-02-02T08:14:04;9.20;99.90
44671;DHT22;48397;53.016;-2.260;2023-02-02T08:16:33;9.20;99.90
44671;DHT22;48397;53.016;-2.260;2023-02-02T08:21:32;9.20;99.90
44671;DHT22;48397;53.016;-2.260;2023-02-02T08:24:00;9.20;99.90
44671;DHT22;48397;53.016;-2.260;2023-02-02T08:26:32;9.20;99.90
44671;DHT22;48397;53.016;-2.260;2023-02-02T08:29:03;9.20;99.90
44671;DHT22;48397;53.016;-2.260;2023-02-02T08:31:37;9.20;99.90
44671;DHT22;48397;53.016;-2.260;2023-02-02T08:34:05;9.30;99.90
44671;DHT22;48397;53.016;-2.260;2023-02-02T08:36:33;9.30;99.90
44671;DHT22;48397;53.016;-2.260;2023-02-02T08:39:05;9.30;99.90
44671;DHT22;48397;53.016;-2.260;2023-02-02T08:41:33;9.30;99.90
44671;DHT22;48397;53.016;-2.260;2023-02-02T08:44:07;9.30;99.90
44671;DHT22;48397;53.016;-2.260;2023-02-02T08:46:38;9.30;99.90
44671;DHT22;48397;53.016;-2.260;2023-02-02T08:49:06;9.30;99.90
44671;DHT22;48397;53.016;-2.260;2023-02-02T08:51:36;9.40;99.90
44671;DHT22;48397;53.016;-2.260;2023-02-02T08:54:03;9.40;99.90
44671;DHT22;48397;53.016;-2.260;2023-02-02T08:56:31;10.20;99.90
44671;DHT22;48397;53.016;-2.260;2023-02-02T08:58:59;9.50;99.90
44671;DHT22;48397;53.016;-2.260;2023-02-02T09:01:31;9.50;99.90
44671;DHT22;48397;53.016;-2.260;2023-02-02T09:04:09;9.50;99.90
44671;DHT22;48397;53.016;-2.260;2023-02-02T09:06:42;9.60;99.90
44671;DHT22;48397;53.016;-2.260;2023-02-02T09:09:13;9.60;99.90
44671;DHT22;48397;53.016;-2.260;2023-02-02T09:11:42;9.70;99.90
44671;DHT22;48397;53.016;-2.260;2023-02-02T09:14:12;9.70;99.90
44671;DHT22;48397;53.016;-2.260;2023-02-02T09:16:42;9.70;99.90
44671;DHT22;48397;53.016;-2.260;2023-02-02T09:19:10;9.70;99.90
44671;DHT22;48397;53.016;-2.260;2023-02-02T09:21:38;9.70;99.90
44671;DHT22;48397;53.016;-2.260;2023-02-02T09:24:09;9.70;99.90
44671;DHT22;48397;53.016;-2.260;2023-02-02T09:26:37;9.60;99.90
44671;DHT22;48397;53.016;-2.260;2023-02-02T09:29:11;9.60;99.90
44671;DHT22;48397;53.016;-2.260;2023-02-02T09:31:40;9.60;99.90
44671;DHT22;48397;53.016;-2.260;2023-02-02T09:34:09;9.60;99.90
44671;DHT22;48397;53.016;-2.260;2023-02-02T09:36:38;9.60;99.90
44671;DHT22;48397;53.016;-2.260;2023-02-02T09:39:09;9.60;99.90
44671;DHT22;48397;53.016;-2.260;2023-02-02T09:50:28;9.60;99.90
44671;DHT22;48397;53.016;-2.260;2023-02-02T09:55:56;9.60;99.90
44671;DHT22;48397;53.016;-2.260;2023-02-02T09:58:34;9.70;99.90
44671;DHT22;48397;53.016;-2.260;2023-02-02T10:01:09;9.70;99.90
44671;DHT22;48397;53.016;-2.260;2023-02-02T10:03:44;9.70;99.90
44671;DHT22;48397;53.016;-2.260;2023-02-02T10:09:34;9.80;99.90
44671;DHT22;48397;53.016;-2.260;2023-02-02T10:12:29;9.90;99.90
44671;DHT22;48397;53.016;-2.260;2023-02-02T10:20:55;10.10;99.90
44671;DHT22;48397;53.016;-2.260;2023-02-02T10:23:35;10.20;99.90
44671;DHT22;48397;53.016;-2.260;2023-02-02T10:29:18;10.20;99.90
44671;DHT22;48397;53.016;-2.260;2023-02-02T10:32:23;10.30;99.90
44671;DHT22;48397;53.016;-2.260;2023-02-02T10:41:04;10.40;99.90
44671;DHT22;48397;53.016;-2.260;2023-02-02T10:46:41;10.50;99.90
44671;DHT22;48397;53.016;-2.260;2023-02-02T10:49:33;10.60;99.90
44671;DHT22;48397;53.016;-2.260;2023-02-02T10:52:15;10.60;99.90
44671;DHT22;48397;53.016;-2.260;2023-02-02T10:54:55;10.60;99.90
44671;DHT22;48397;53.016;-2.260;2023-02-02T10:57:57;10.60;99.90
44671;DHT22;48397;53.016;-2.260;2023-02-02T11:00:43;10.70;99.90
44671;DHT22;48397;53.016;-2.260;2023-02-02T11:03:15;10.60;99.90
44671;DHT22;48397;53.016;-2.260;2023-02-02T11:05:44;10.60;99.90
44671;DHT22;48397;53.016;-2.260;2023-02-02T11:08:34;10.60;99.90
44671;DHT22;48397;53.016;-2.260;2023-02-02T11:14:08;10.50;99.90
44671;DHT22;48397;53.016;-2.260;2023-02-02T11:16:39;10.50;99.90
44671;DHT22;48397;53.016;-2.260;2023-02-02T11:21:48;10.50;99.90
44671;DHT22;48397;53.016;-2.260;2023-02-02T11:24:46;10.50;99.90
44671;DHT22;48397;53.016;-2.260;2023-02-02T11:29:51;10.50;99.90
44671;DHT22;48397;53.016;-2.260;2023-02-02T11:32:33;10.50;99.90
44671;DHT22;48397;53.016;-2.260;2023-02-02T11:37:36;10.60;99.90
44671;DHT22;48397;53.016;-2.260;2023-02-02T11:40:36;10.70;99.90
44671;DHT22;48397;53.016;-2.260;2023-02-02T11:43:16;10.70;99.90
44671;DHT22;48397;53.016;-2.260;2023-02-02T11:45:50;10.60;99.90
44671;DHT22;48397;53.016;-2.260;2023-02-02T11:48:21;10.70;99.90
44671;DHT22;48397;53.016;-2.260;2023-02-02T11:50:55;10.60;99.90
44671;DHT22;48397;53.016;-2.260;2023-02-02T11:56:00;10.70;99.90
44671;DHT22;48397;53.016;-2.260;2023-02-02T11:58:42;10.80;99.90
44671;DHT22;48397;53.016;-2.260;2023-02-02T12:01:34;10.70;99.90
44671;DHT22;48397;53.016;-2.260;2023-02-02T12:04:23;10.80;99.90
44671;DHT22;48397;53.016;-2.260;2023-02-02T12:06:51;10.80;99.90
44671;DHT22;48397;53.016;-2.260;2023-02-02T12:09:24;10.80;99.90
44671;DHT22;48397;53.016;-2.260;2023-02-02T12:17:39;10.80;99.90
44671;DHT22;48397;53.016;-2.260;2023-02-02T12:26:27;10.90;99.90
44671;DHT22;48397;53.016;-2.260;2023-02-02T12:32:43;11.00;99.90
44671;DHT22;48397;53.016;-2.260;2023-02-02T12:37:45;10.90;99.90
44671;DHT22;48397;53.016;-2.260;2023-02-02T12:46:13;11.00;99.90
44671;DHT22;48397;53.016;-2.260;2023-02-02T12:49:00;11.00;99.90
44671;DHT22;48397;53.016;-2.260;2023-02-02T12:54:28;11.00;99.90
44671;DHT22;48397;53.016;-2.260;2023-02-02T13:00:12;11.10;99.90
44671;DHT22;48397;53.016;-2.260;2023-02-02T13:03:08;11.20;99.90
44671;DHT22;48397;53.016;-2.260;2023-02-02T13:11:41;11.30;99.90
44671;DHT22;48397;53.016;-2.260;2023-02-02T13:14:21;11.30;99.90
44671;DHT22;48397;53.016;-2.260;2023-02-02T13:16:58;11.40;99.90
44671;DHT22;48397;53.016;-2.260;2023-02-02T13:20:00;11.50;99.90
44671;DHT22;48397;53.016;-2.260;2023-02-02T13:22:37;11.40;99.90
44671;DHT22;48397;53.016;-2.260;2023-02-02T13:25:22;11.50;99.90
44671;DHT22;48397;53.016;-2.260;2023-02-02T13:27:52;11.60;99.90
44671;DHT22;48397;53.016;-2.260;2023-02-02T13:30:29;11.60;99.90
44671;DHT22;48397;53.016;-2.260;2023-02-02T13:33:01;11.70;99.90
44671;DHT22;48397;53.016;-2.260;2023-02-02T13:35:41;11.70;99.90
44671;DHT22;48397;53.016;-2.260;2023-02-02T13:40:54;11.70;99.90
44671;DHT22;48397;53.016;-2.260;2023-02-02T14:03:05;12.00;99.90
44671;DHT22;48397;53.016;-2.260;2023-02-02T14:05:37;11.60;99.90
44671;DHT22;48397;53.016;-2.260;2023-02-02T14:08:17;12.00;99.90
44671;DHT22;48397;53.016;-2.260;2023-02-02T14:13:41;12.00;99.90
44671;DHT22;48397;53.016;-2.260;2023-02-02T14:19:02;11.90;99.90
44671;DHT22;48397;53.016;-2.260;2023-02-02T14:38:14;11.50;99.90
44671;DHT22;48397;53.016;-2.260;2023-02-02T14:41:43;11.60;99.90
44671;DHT22;48397;53.016;-2.260;2023-02-02T14:43:46;11.60;99.90
44671;DHT22;48397;53.016;-2.260;2023-02-02T14:46:46;11.60;99.90
44671;DHT22;48397;53.016;-2.260;2023-02-02T14:49:19;11.60;99.90
44671;DHT22;48397;53.016;-2.260;2023-02-02T14:51:54;11.60;99.90
44671;DHT22;48397;53.016;-2.260;2023-02-02T14:54:41;11.60;99.90
44671;DHT22;48397;53.016;-2.260;2023-02-02T14:57:25;11.60;99.90
44671;DHT22;48397;53.016;-2.260;2023-02-02T14:59:55;13.00;99.90
44671;DHT22;48397;53.016;-2.260;2023-02-02T15:02:35;11.60;99.90
44671;DHT22;48397;53.016;-2.260;2023-02-02T15:13:16;11.60;99.90
44671;DHT22;48397;53.016;-2.260;2023-02-02T15:20:12;11.60;99.90
44671;DHT22;48397;53.016;-2.260;2023-02-02T15:25:45;11.60;99.90
44671;DHT22;48397;53.016;-2.260;2023-02-02T15:28:47;11.60;99.90
44671;DHT22;48397;53.016;-2.260;2023-02-02T15:33:49;11.60;99.90
44671;DHT22;48397;53.016;-2.260;2023-02-02T15:36:25;11.70;99.90
44671;DHT22;48397;53.016;-2.260;2023-02-02T15:39:00;11.70;99.90
44671;DHT22;48397;53.016;-2.260;2023-02-02T15:41:33;11.80;99.90
44671;DHT22;48397;53.016;-2.260;2023-02-02T15:44:20;11.80;99.90
44671;DHT22;48397;53.016;-2.260;2023-02-02T15:46:49;11.70;99.90
44671;DHT22;48397;53.016;-2.260;2023-02-02T15:49:35;11.70;99.90
44671;DHT22;48397;53.016;-2.260;2023-02-02T15:52:16;11.60;99.90
44671;DHT22;48397;53.016;-2.260;2023-02-02T15:54:53;11.60;99.90
44671;DHT22;48397;53.016;-2.260;2023-02-02T15:57:35;11.50;99.90
44671;DHT22;48397;53.016;-2.260;2023-02-02T16:00:24;11.40;99.90
44671;DHT22;48397;53.016;-2.260;2023-02-02T16:07:59;11.20;99.90
44671;DHT22;48397;53.016;-2.260;2023-02-02T16:10:34;11.20;99.90
44671;DHT22;48397;53.016;-2.260;2023-02-02T16:13:02;11.10;99.90
44671;DHT22;48397;53.016;-2.260;2023-02-02T16:15:30;11.10;99.90
44671;DHT22;48397;53.016;-2.260;2023-02-02T16:18:12;11.10;99.90
44671;DHT22;48397;53.016;-2.260;2023-02-02T16:20:42;11.00;99.90
44671;DHT22;48397;53.016;-2.260;2023-02-02T16:23:13;10.90;99.90
44671;DHT22;48397;53.016;-2.260;2023-02-02T16:25:53;10.90;99.90
44671;DHT22;48397;53.016;-2.260;2023-02-02T16:28:21;10.90;99.90
44671;DHT22;48397;53.016;-2.260;2023-02-02T16:30:50;10.80;99.90
44671;DHT22;48397;53.016;-2.260;2023-02-02T16:33:37;10.80;99.90
44671;DHT22;48397;53.016;-2.260;2023-02-02T16:36:25;10.80;99.90
44671;DHT22;48397;53.016;-2.260;2023-02-02T16:38:54;10.80;99.90
44671;DHT22;48397;53.016;-2.260;2023-02-02T16:41:35;10.70;99.90
44671;DHT22;48397;53.016;-2.260;2023-02-02T16:50:05;10.70;99.90
44671;DHT22;48397;53.016;-2.260;2023-02-02T16:53:00;10.60;99.90
44671;DHT22;48397;53.016;-2.260;2023-02-02T16:55:31;10.60;99.90
44671;DHT22;48397;53.016;-2.260;2023-02-02T16:58:20;10.50;99.90
44671;DHT22;48397;53.016;-2.260;2023-02-02T17:01:09;10.50;99.90
44671;DHT22;48397;53.016;-2.260;2023-02-02T17:03:52;10.40;99.90
44671;DHT22;48397;53.016;-2.260;2023-02-02T17:06:28;10.40;99.90
44671;DHT22;48397;53.016;-2.260;2023-02-02T17:09:26;10.40;99.90
44671;DHT22;48397;53.016;-2.260;2023-02-02T17:12:22;10.40;99.90
44671;DHT22;48397;53.016;-2.260;2023-02-02T17:15:55;10.40;99.90
44671;DHT22;48397;53.016;-2.260;2023-02-02T17:18:14;10.30;99.90
44671;DHT22;48397;53.016;-2.260;2023-02-02T17:20:45;10.40;99.90
44671;DHT22;48397;53.016;-2.260;2023-02-02T17:23:16;10.30;99.90
44671;DHT22;48397;53.016;-2.260;2023-02-02T17:25:45;10.30;99.90
44671;DHT22;48397;53.016;-2.260;2023-02-02T17:28:18;10.40;99.90
44671;DHT22;48397;53.016;-2.260;2023-02-02T17:30:51;10.40;99.90
44671;DHT22;48397;53.016;-2.260;2023-02-02T17:33:22;10.40;99.90
44671;DHT22;48397;53.016;-2.260;2023-02-02T17:35:51;10.40;99.90
44671;DHT22;48397;53.016;-2.260;2023-02-02T17:38:23;10.40;99.90
44671;DHT22;48397;53.016;-2.260;2023-02-02T17:40:52;10.30;99.90
44671;DHT22;48397;53.016;-2.260;2023-02-02T17:43:20;10.30;99.90
44671;DHT22;48397;53.016;-2.260;2023-02-02T17:45:48;10.30;99.90
44671;DHT22;48397;53.016;-2.260;2023-02-02T17:48:16;10.30;99.90
44671;DHT22;48397;53.016;-2.260;2023-02-02T17:50:44;10.20;99.90
44671;DHT22;48397;53.016;-2.260;2023-02-02T17:53:13;10.30;99.90
44671;DHT22;48397;53.016;-2.260;2023-02-02T17:55:43;10.30;99.90
44671;DHT22;48397;53.016;-2.260;2023-02-02T17:58:12;10.20;99.90
44671;DHT22;48397;53.016;-2.260;2023-02-02T18:00:50;10.30;99.90
44671;DHT22;48397;53.016;-2.260;2023-02-02T18:03:25;10.30;99.90
44671;DHT22;48397;53.016;-2.260;2023-02-02T18:05:54;10.30;99.90
44671;DHT22;48397;53.016;-2.260;2023-02-02T18:13:20;10.40;99.90
44671;DHT22;48397;53.016;-2.260;2023-02-02T18:15:49;10.40;99.90
44671;DHT22;48397;53.016;-2.260;2023-02-02T18:18:17;10.40;99.90
44671;DHT22;48397;53.016;-2.260;2023-02-02T18:20:47;10.40;99.90
44671;DHT22;48397;53.016;-2.260;2023-02-02T18:23:16;10.30;99.90
44671;DHT22;48397;53.016;-2.260;2023-02-02T18:25:44;10.30;99.90
44671;DHT22;48397;53.016;-2.260;2023-02-02T18:28:12;10.30;99.90
44671;DHT22;48397;53.016;-2.260;2023-02-02T18:30:45;10.20;99.90
44671;DHT22;48397;53.016;-2.260;2023-02-02T18:33:14;10.20;99.90
44671;DHT22;48397;53.016;-2.260;2023-02-02T18:35:46;10.20;99.90
44671;DHT22;48397;53.016;-2.260;2023-02-02T18:40:42;10.20;99.90
44671;DHT22;48397;53.016;-2.260;2023-02-02T18:43:10;10.20;99.90
44671;DHT22;48397;53.016;-2.260;2023-02-02T18:45:37;10.10;99.90
44671;DHT22;48397;53.016;-2.260;2023-02-02T18:48:05;10.10;99.90
44671;DHT22;48397;53.016;-2.260;2023-02-02T18:53:00;10.10;99.90
44671;DHT22;48397;53.016;-2.260;2023-02-02T18:55:28;10.00;99.90
44671;DHT22;48397;53.016;-2.260;2023-02-02T18:57:56;10.00;99.90
44671;DHT22;48397;53.016;-2.260;2023-02-02T19:00:24;10.00;99.90
44671;DHT22;48397;53.016;-2.260;2023-02-02T19:02:52;10.00;99.90
44671;DHT22;48397;53.016;-2.260;2023-02-02T19:05:19;9.90;99.90
44671;DHT22;48397;53.016;-2.260;2023-02-02T19:08:06;9.90;99.90
44671;DHT22;48397;53.016;-2.260;2023-02-02T19:10:33;9.90;99.90
44671;DHT22;48397;53.016;-2.260;2023-02-02T19:15:33;9.80;99.90
44671;DHT22;48397;53.016;-2.260;2023-02-02T19:18:13;9.80;99.90
44671;DHT22;48397;53.016;-2.260;2023-02-02T19:20:42;9.70;99.90
44671;DHT22;48397;53.016;-2.260;2023-02-02T19:23:15;9.70;99.90
44671;DHT22;48397;53.016;-2.260;2023-02-02T19:25:47;9.70;99.90
44671;DHT22;48397;53.016;-2.260;2023-02-02T19:28:23;9.60;99.90
44671;DHT22;48397;53.016;-2.260;2023-02-02T19:30:53;8.70;99.90
44671;DHT22;48397;53.016;-2.260;2023-02-02T19:33:37;9.60;99.90
44671;DHT22;48397;53.016;-2.260;2023-02-02T19:36:32;9.60;99.90